メインページ
METAR-TAF:

METAR-TAF

空港 :

マル・デル・プラタ, アルゼンチン

緯度: 37-56S, 経度: 057-35W, 海抜: 18m

現時点の気象観測

当レポートは40分前の06:00(UTC)に作成
南東の風 10kt
気温 9°C
湿度 76%
気圧 1027 hPa
視程10km以上
高度2100ftの雲は散在している
高度20000ftの曇り

METAR: SAZM 200600Z 13010KT 9999 SCT021 OVC200 09/05 Q1027

時間: 03:40 (06:40 UTC)

予報

当レポートは1時間40分前の05:00(UTC)に作成
予報は20日の 06時(UTC)から 21日の 06時(UTC)まで有効
東/南東の風 10kt
視程10km以上
高度2000ftの雲は散在している
高度10000ftの千切れ雲あり
20日の 06時(UTC)から 20日の 08時(UTC)まで徐々に
の風 10kt
視程: 6000m
高度1000ftの雲は散在している
高度1500ftの千切れ雲あり
20日の 08時(UTC)から 20日の 11時(UTC)まで一時的に
視程: 1000m
高度800ftの千切れ雲あり
20日の 13時(UTC)から 20日の 14時(UTC)まで徐々に
北東の風 15kt
視程10km以上
高度3500ftの雲は散在している
間 01から8/ UTC徐々に
視程10km以上
1,500メートル以下は雲なし、積乱雲なし

TAF: SAZM 200500Z 2006/2106 12010KT 9999 SCT020 BKN100 TX16/2018Z TN05/2010Z BECMG 2006/2008 09010KT 6000 SCT010 BKN015 TEMPO 2008/2011 1000 FG BKN008 BECMG 2013/2014 05015KT 9999 SCT035 BECMG 018/2020 CAVOK

4,000以上の空港の気象観測と天気予報(METAR報とTAF報)

利用可能な観測所は地図上に黄色い丸と赤い丸で示す。

丸の上にカーソルを重ねると観測所名を参照できる。

次にクリックすると気象観測と天気予報を参照できる。

マップの切り替え:黒色「×」印の緑ボタンをクリックして拡大、「-」印の緑ボタンをクリックして縮小、緑色の三角印をクリックして隣りの地図に切り替え


METAR-TAF: